createdAt,value
2017-09-05T00:01:32.748Z,80.00
2017-09-05T00:06:35.986Z,85.90
2017-09-05T00:11:40.060Z,85.90
2017-09-05T00:16:43.262Z,85.40
2017-09-05T00:37:43.692Z,85.80
2017-09-05T00:42:46.895Z,85.90
2017-09-05T00:47:50.092Z,86.80
2017-09-05T00:52:53.292Z,85.70
2017-09-05T00:57:56.514Z,85.50
2017-09-05T01:02:59.734Z,84.50
2017-09-05T01:08:02.937Z,84.30
2017-09-05T01:13:06.137Z,84.30
2017-09-05T01:18:09.343Z,85.20
2017-09-05T01:23:12.550Z,86.30
2017-09-05T01:28:15.761Z,88.00
2017-09-05T01:33:18.973Z,88.00
2017-09-05T01:38:22.182Z,88.00
2017-09-05T01:43:25.492Z,89.50
2017-09-05T01:48:28.691Z,90.30
2017-09-05T01:53:31.897Z,91.20
2017-09-05T01:58:35.112Z,94.50
2017-09-05T02:03:38.336Z,98.40
2017-09-05T02:08:41.539Z,99.10
2017-09-05T02:13:44.760Z,99.60
2017-09-05T02:18:47.971Z,99.90
2017-09-05T02:23:51.187Z,99.90
2017-09-05T02:28:54.408Z,99.90
2017-09-05T02:33:57.626Z,99.90
2017-09-05T02:39:00.851Z,99.90
2017-09-05T02:44:04.079Z,99.90
2017-09-05T02:49:07.289Z,99.90
2017-09-05T02:54:10.515Z,99.90
2017-09-05T02:59:13.688Z,99.90
2017-09-05T03:04:16.908Z,99.90
2017-09-05T03:09:20.087Z,99.90
2017-09-05T03:14:23.333Z,99.90
2017-09-05T03:19:26.534Z,99.90
2017-09-05T03:24:29.753Z,99.90
2017-09-05T03:29:32.968Z,99.90
2017-09-05T03:34:36.183Z,99.90
2017-09-05T03:39:39.407Z,99.90
2017-09-05T03:44:42.626Z,99.90
2017-09-05T03:49:46.045Z,99.90
2017-09-05T03:54:49.271Z,99.90
2017-09-05T03:59:52.494Z,99.90
2017-09-05T04:04:55.703Z,99.90
2017-09-05T04:09:58.910Z,99.90
2017-09-05T04:15:02.110Z,99.90
2017-09-05T04:20:05.424Z,99.40
2017-09-05T04:25:08.627Z,99.90
2017-09-05T04:30:11.845Z,99.50
2017-09-05T04:35:15.084Z,98.70
2017-09-05T04:40:18.300Z,98.70
2017-09-05T04:45:21.511Z,98.10
2017-09-05T04:50:24.714Z,98.60
2017-09-05T04:55:27.981Z,98.80
2017-09-05T05:00:31.196Z,98.70
2017-09-05T05:05:34.420Z,99.10
2017-09-05T05:10:37.673Z,98.70
2017-09-05T05:15:40.900Z,98.00
2017-09-05T05:20:44.118Z,98.90
2017-09-05T05:25:47.340Z,98.40
2017-09-05T05:30:50.531Z,98.10
2017-09-05T05:35:53.769Z,98.10
2017-09-05T05:40:56.986Z,97.90
2017-09-05T05:46:00.327Z,97.60
2017-09-05T05:51:03.539Z,98.20
2017-09-05T05:56:06.798Z,98.30
2017-09-05T06:01:10.000Z,95.60
2017-09-05T06:06:13.254Z,95.50
2017-09-05T06:11:16.466Z,94.90
2017-09-05T06:16:19.707Z,93.80
2017-09-05T06:21:22.892Z,87.60
2017-09-05T06:26:26.139Z,84.20
2017-09-05T06:31:29.364Z,87.70
2017-09-05T06:36:32.600Z,89.00
2017-09-05T06:41:35.832Z,89.70
2017-09-05T06:46:39.035Z,84.30
2017-09-05T06:51:42.243Z,80.10
2017-09-05T06:56:45.440Z,82.80
2017-09-05T07:01:48.621Z,83.60
2017-09-05T07:06:51.856Z,82.50
2017-09-05T07:11:55.048Z,76.10
2017-09-05T07:16:58.281Z,79.80
2017-09-05T07:22:01.581Z,80.80
2017-09-05T07:27:04.792Z,80.60
2017-09-05T07:32:08.037Z,70.90
2017-09-05T07:37:11.310Z,67.70
2017-09-05T07:42:14.534Z,66.20
2017-09-05T07:47:17.774Z,70.70
2017-09-05T07:52:21.009Z,73.60
2017-09-05T07:57:24.224Z,71.20
2017-09-05T08:02:27.433Z,71.90
2017-09-05T08:07:30.641Z,75.80
2017-09-05T08:12:33.853Z,76.30
2017-09-05T08:17:37.089Z,77.50
2017-09-05T08:22:40.314Z,76.60
2017-09-05T08:27:43.603Z,75.50
2017-09-05T08:32:46.838Z,71.80
2017-09-05T08:37:50.093Z,71.00
2017-09-05T08:42:53.318Z,70.10
2017-09-05T08:47:56.631Z,71.00
2017-09-05T08:52:59.853Z,68.90
2017-09-05T08:58:03.120Z,69.20
2017-09-05T09:03:06.475Z,68.80
2017-09-05T09:08:09.792Z,68.50
2017-09-05T09:13:13.020Z,67.20
2017-09-05T09:18:16.246Z,65.70
2017-09-05T09:23:19.454Z,68.20
2017-09-05T09:28:22.625Z,69.00
2017-09-05T09:33:25.893Z,68.30
2017-09-05T09:38:29.112Z,68.10
2017-09-05T09:43:32.344Z,67.40
2017-09-05T09:48:35.557Z,70.00
2017-09-05T09:53:38.757Z,68.00
2017-09-05T09:58:42.019Z,67.00
2017-09-05T10:03:45.238Z,64.60
2017-09-05T10:08:48.585Z,63.80
2017-09-05T10:13:51.845Z,65.30
2017-09-05T10:18:55.066Z,65.70
2017-09-05T10:23:58.300Z,64.60
2017-09-05T10:29:01.522Z,65.20
2017-09-05T10:34:04.759Z,65.80
2017-09-05T10:39:07.984Z,65.10
2017-09-05T10:44:11.210Z,62.50
2017-09-05T10:49:14.480Z,64.40
2017-09-05T10:54:17.704Z,62.90
2017-09-05T10:59:20.959Z,62.50
2017-09-05T11:04:25.182Z,61.50
2017-09-05T11:09:28.416Z,60.50
2017-09-05T11:14:31.839Z,60.30
2017-09-05T11:19:35.045Z,59.70
2017-09-05T11:24:38.422Z,59.00
2017-09-05T11:29:41.689Z,58.80
2017-09-05T11:34:44.937Z,59.00
2017-09-05T11:39:48.157Z,57.90
2017-09-05T11:44:51.395Z,57.80
2017-09-05T11:49:54.581Z,57.20
2017-09-05T11:54:57.829Z,56.80
2017-09-05T12:00:01.036Z,54.30
2017-09-05T12:05:04.249Z,51.70
2017-09-05T12:10:07.474Z,52.00
2017-09-05T12:15:10.666Z,54.00
2017-09-05T12:20:14.141Z,54.10
2017-09-05T12:25:17.342Z,54.40
2017-09-05T12:30:20.730Z,54.80
2017-09-05T12:35:23.918Z,54.80
2017-09-05T12:40:27.114Z,54.30
2017-09-05T12:45:30.264Z,54.80
2017-09-05T12:50:33.600Z,54.80
2017-09-05T12:55:36.836Z,55.60
2017-09-05T13:00:40.013Z,55.70
2017-09-05T13:05:43.424Z,56.30
2017-09-05T13:10:46.634Z,54.80
2017-09-05T13:15:49.859Z,54.80
2017-09-05T13:20:53.119Z,54.30
2017-09-05T13:25:56.311Z,53.30
2017-09-05T13:30:59.785Z,52.70
2017-09-05T13:36:02.999Z,52.30
2017-09-05T13:41:06.184Z,52.30
2017-09-05T13:46:09.400Z,52.00
2017-09-05T13:51:12.599Z,52.40
2017-09-05T13:56:15.801Z,52.30
2017-09-05T14:01:19.010Z,53.30
2017-09-05T14:06:22.218Z,53.00
2017-09-05T14:11:25.435Z,52.20
2017-09-05T14:16:28.635Z,52.80
2017-09-05T14:21:31.886Z,50.90
2017-09-05T14:26:35.222Z,52.40
2017-09-05T14:31:38.454Z,51.50
2017-09-05T14:36:41.672Z,52.30
2017-09-05T14:41:44.903Z,53.10
2017-09-05T14:46:48.107Z,53.50
2017-09-05T14:51:51.313Z,54.70
2017-09-05T14:56:54.535Z,55.90
2017-09-05T15:01:57.730Z,55.70
2017-09-05T15:07:00.996Z,54.80
2017-09-05T15:12:04.216Z,55.90
2017-09-05T15:17:07.420Z,56.50
2017-09-05T15:22:10.715Z,57.40
2017-09-05T15:27:13.952Z,58.20
2017-09-05T15:32:17.137Z,58.40
2017-09-05T15:37:20.318Z,58.60
2017-09-05T15:42:23.535Z,58.90
2017-09-05T15:47:26.731Z,58.90
2017-09-05T15:52:29.938Z,58.60
2017-09-05T15:57:33.193Z,58.00
2017-09-05T16:02:36.446Z,58.00
2017-09-05T16:07:39.706Z,58.00
2017-09-05T16:12:42.931Z,58.20
2017-09-05T16:17:46.136Z,58.90
2017-09-05T16:22:49.367Z,58.90
2017-09-05T16:27:52.596Z,59.30
2017-09-05T16:32:55.863Z,59.70
2017-09-05T16:37:59.074Z,60.10
2017-09-05T16:43:02.311Z,60.20
2017-09-05T16:48:05.533Z,59.80
2017-09-05T16:53:08.744Z,59.40
2017-09-05T17:03:41.679Z,59.20
2017-09-05T17:08:44.902Z,60.30
2017-09-05T17:13:48.171Z,60.70
2017-09-05T17:18:51.486Z,61.80
2017-09-05T17:23:54.686Z,62.10
2017-09-05T17:28:57.893Z,62.30
2017-09-05T17:34:01.088Z,62.20
2017-09-05T17:39:04.266Z,62.40
2017-09-05T17:44:07.483Z,62.30
2017-09-05T17:49:10.810Z,62.00
2017-09-05T17:54:14.026Z,62.80
2017-09-05T17:59:17.262Z,62.90
2017-09-05T18:04:20.500Z,62.90
2017-09-05T18:09:23.707Z,63.70
2017-09-05T18:14:26.905Z,64.10
2017-09-05T18:19:30.132Z,64.90
2017-09-05T18:24:33.348Z,64.20
2017-09-05T18:29:36.680Z,65.00
2017-09-05T18:34:39.906Z,65.80
2017-09-05T18:39:43.201Z,65.80
2017-09-05T18:44:46.426Z,66.30
2017-09-05T18:49:49.667Z,66.90
2017-09-05T18:54:52.987Z,69.10
2017-09-05T18:59:56.501Z,70.10
2017-09-05T19:05:00.013Z,68.70
2017-09-05T19:10:03.427Z,68.40
2017-09-05T19:15:06.826Z,68.10
2017-09-05T19:20:10.120Z,68.70
2017-09-05T19:25:13.352Z,70.70
2017-09-05T19:30:16.663Z,72.80
2017-09-05T19:35:19.882Z,74.20
2017-09-05T19:40:23.130Z,75.70
2017-09-05T19:45:26.357Z,74.80
2017-09-05T19:50:29.582Z,73.80
2017-09-05T19:55:32.800Z,73.80
2017-09-05T20:00:36.008Z,74.10
2017-09-05T20:05:39.304Z,73.30
2017-09-05T20:10:42.519Z,73.60
2017-09-05T20:15:45.732Z,73.80
2017-09-05T20:20:48.975Z,74.30
2017-09-05T20:25:52.227Z,75.20
2017-09-05T20:30:55.495Z,75.00
2017-09-05T20:35:58.754Z,75.70
2017-09-05T20:41:01.916Z,76.20
2017-09-05T20:46:05.167Z,77.70
2017-09-05T20:51:08.428Z,78.20
2017-09-05T20:56:11.656Z,77.70
2017-09-05T21:01:14.885Z,76.60
2017-09-05T21:06:18.146Z,77.10
2017-09-05T21:11:21.365Z,77.70
2017-09-05T21:16:25.450Z,79.30
2017-09-05T21:21:28.902Z,80.30
2017-09-05T21:26:32.200Z,80.90
2017-09-05T21:31:35.409Z,82.00
2017-09-05T21:36:38.683Z,81.90
2017-09-05T21:41:41.918Z,81.20
2017-09-05T21:46:45.134Z,81.10
2017-09-05T21:51:48.336Z,82.00
2017-09-05T21:56:51.579Z,81.90
2017-09-05T22:01:54.799Z,81.60
2017-09-05T22:06:58.041Z,81.60
2017-09-05T22:12:01.267Z,82.20
2017-09-05T22:17:04.471Z,82.90
2017-09-05T22:22:07.673Z,83.70
2017-09-05T22:27:16.490Z,83.20
2017-09-05T22:32:19.714Z,83.30
2017-09-05T22:37:22.947Z,84.40
2017-09-05T22:42:26.137Z,84.50
2017-09-05T22:47:29.385Z,84.60
2017-09-05T22:52:32.615Z,84.80
2017-09-05T22:57:35.825Z,84.60
2017-09-05T23:02:39.042Z,84.50
2017-09-05T23:07:42.206Z,85.00
2017-09-05T23:12:45.414Z,84.90
2017-09-05T23:17:48.597Z,85.60
2017-09-05T23:22:51.834Z,86.40
2017-09-05T23:27:55.022Z,87.50
2017-09-05T23:32:58.235Z,88.00
2017-09-05T23:38:01.438Z,87.70
2017-09-05T23:43:04.642Z,87.60
2017-09-05T23:48:07.893Z,89.40
2017-09-05T23:53:11.142Z,90.50
2017-09-05T23:58:14.339Z,90.90
